Berezniki, Russia
Current Conditions -  °F | °C
As of 7:30 PM on Sunday 23 Nov 2014 (Local Time) from USPP Reporting Station
Few Clouds Few Clouds  
Wind Chill: -9°   Ceiling: Unl
Heat Index:   Visibility: 6mi
Dew Point: -2°   Wind: 7mph
Humidity: 78%   Direction: 30°NNE
Pressure: 30.56"   Gusts: NA
Location:  59.41°N, 56.77°E
Report Text: USPP 231430Z 03003MPS 9999 FEW016 M16/M19 Q1035 03820255 NOSIGRMK QFE766/1021
Loading
Personal Weather Stations






























Interactive Weather Map New forecast layout! Learn more

10-Day Weather Forecast

Advertisements
Track Severe Weather on mobile